createdAt,value
2018-09-16T00:00:42.689Z,17.36
2018-09-16T00:01:43.160Z,17.45
2018-09-16T00:02:43.634Z,17.54
2018-09-16T00:03:44.107Z,17.64
2018-09-16T00:04:44.579Z,17.74
2018-09-16T00:05:45.055Z,17.84
2018-09-16T00:06:45.528Z,17.92
2018-09-16T00:07:45.999Z,18.00
2018-09-16T00:08:46.473Z,18.05
2018-09-16T00:09:46.948Z,18.07
2018-09-16T00:10:47.420Z,18.09
2018-09-16T00:11:47.897Z,18.08
2018-09-16T00:12:48.373Z,18.07
2018-09-16T00:13:48.843Z,18.01
2018-09-16T00:14:49.318Z,17.94
2018-09-16T00:15:49.790Z,17.88
2018-09-16T00:16:50.264Z,17.81
2018-09-16T00:17:50.739Z,17.72
2018-09-16T00:18:51.215Z,17.62
2018-09-16T00:19:51.687Z,17.51
2018-09-16T00:20:52.162Z,17.40
2018-09-16T00:21:52.636Z,17.30
2018-09-16T00:22:53.110Z,17.18
2018-09-16T00:23:53.583Z,17.08
2018-09-16T00:24:54.056Z,16.97
2018-09-16T00:25:54.533Z,16.86
2018-09-16T00:26:55.004Z,16.75
2018-09-16T00:27:55.478Z,16.62
2018-09-16T00:28:55.953Z,16.52
2018-09-16T00:29:56.422Z,16.41
2018-09-16T00:30:56.895Z,16.32
2018-09-16T00:31:57.368Z,16.21
2018-09-16T00:32:57.840Z,16.13
2018-09-16T00:33:58.312Z,16.04
2018-09-16T00:34:58.786Z,15.94
2018-09-16T00:35:59.259Z,15.85
2018-09-16T00:36:59.729Z,15.76
2018-09-16T00:38:00.205Z,15.67
2018-09-16T00:39:00.672Z,15.57
2018-09-16T00:40:01.143Z,15.47
2018-09-16T00:41:01.615Z,15.39
2018-09-16T00:42:02.086Z,15.31
2018-09-16T00:43:02.556Z,15.23
2018-09-16T00:44:03.028Z,15.15
2018-09-16T00:45:03.502Z,15.08
2018-09-16T00:47:04.441Z,14.97
2018-09-16T00:48:04.913Z,14.94
2018-09-16T00:49:05.381Z,14.93
2018-09-16T00:50:05.855Z,14.93
2018-09-16T00:51:06.322Z,14.95
2018-09-16T00:52:06.793Z,14.99
2018-09-16T00:53:07.264Z,15.04
2018-09-16T00:54:07.732Z,15.10
2018-09-16T00:55:08.202Z,15.18
2018-09-16T00:56:08.672Z,15.27
2018-09-16T00:57:09.142Z,15.37
2018-09-16T00:58:09.613Z,15.46
2018-09-16T00:59:10.083Z,15.57
2018-09-16T01:00:10.554Z,15.69
2018-09-16T01:01:11.025Z,15.80
2018-09-16T01:02:11.495Z,15.91
2018-09-16T01:03:11.968Z,16.03
2018-09-16T01:04:12.437Z,16.14
2018-09-16T01:05:12.911Z,16.24
2018-09-16T01:06:13.380Z,16.36
2018-09-16T01:07:13.849Z,16.47
2018-09-16T01:08:14.322Z,16.57
2018-09-16T01:09:14.792Z,16.68
2018-09-16T01:10:15.266Z,16.77
2018-09-16T01:11:15.736Z,16.85
2018-09-16T01:12:16.209Z,16.95
2018-09-16T01:13:16.680Z,17.03
2018-09-16T01:14:17.153Z,17.11
2018-09-16T01:15:17.625Z,17.20
2018-09-16T01:16:18.100Z,17.29
2018-09-16T01:17:18.574Z,17.37
2018-09-16T01:18:19.044Z,17.46
2018-09-16T01:19:19.517Z,17.56
2018-09-16T01:20:19.990Z,17.63
2018-09-16T01:21:20.465Z,17.69
2018-09-16T01:22:20.939Z,17.71
2018-09-16T01:23:21.413Z,17.73
2018-09-16T01:24:21.886Z,17.74
2018-09-16T01:25:22.360Z,17.73
2018-09-16T01:26:22.844Z,17.68
2018-09-16T01:27:23.309Z,17.64
2018-09-16T01:28:23.783Z,17.58
2018-09-16T01:29:24.258Z,17.50
2018-09-16T01:30:24.731Z,17.42
2018-09-16T01:31:25.204Z,17.33
2018-09-16T01:32:25.832Z,17.22
2018-09-16T01:33:26.154Z,17.11
2018-09-16T01:34:26.638Z,17.00
2018-09-16T01:35:27.099Z,16.88
2018-09-16T01:36:27.573Z,16.78
2018-09-16T01:37:28.048Z,16.66
2018-09-16T01:38:28.521Z,16.54
2018-09-16T01:39:28.995Z,16.43
2018-09-16T01:40:29.466Z,16.31
2018-09-16T01:41:29.938Z,16.19
2018-09-16T01:42:30.464Z,16.08
2018-09-16T01:43:30.885Z,15.98
2018-09-16T01:44:31.357Z,15.87
2018-09-16T01:45:31.831Z,15.78
2018-09-16T01:46:32.302Z,15.68
2018-09-16T01:47:32.775Z,15.59
2018-09-16T01:48:33.249Z,15.49
2018-09-16T01:49:33.719Z,15.40
2018-09-16T01:50:34.190Z,15.30
2018-09-16T01:51:34.661Z,15.21
2018-09-16T01:52:35.133Z,15.11
2018-09-16T01:53:35.605Z,15.02
2018-09-16T01:54:36.074Z,14.93
2018-09-16T01:55:36.547Z,14.85
2018-09-16T01:56:37.016Z,14.78
2018-09-16T01:57:37.488Z,14.72
2018-09-16T01:58:37.958Z,14.68
2018-09-16T01:59:38.427Z,14.66
2018-09-16T02:00:38.898Z,14.65
2018-09-16T02:01:39.373Z,14.66
2018-09-16T02:02:39.839Z,14.68
2018-09-16T02:03:40.314Z,14.74
2018-09-16T02:04:40.782Z,14.79
2018-09-16T02:05:41.250Z,14.86
2018-09-16T02:06:41.722Z,14.94
2018-09-16T02:07:42.192Z,15.04
2018-09-16T02:08:42.661Z,15.14
2018-09-16T02:09:43.130Z,15.24
2018-09-16T02:10:43.601Z,15.34
2018-09-16T02:11:44.072Z,15.48
2018-09-16T02:12:44.593Z,15.60
2018-09-16T02:13:45.012Z,15.70
2018-09-16T02:14:45.482Z,15.81
2018-09-16T02:15:45.953Z,15.92
2018-09-16T02:16:46.426Z,16.02
2018-09-16T02:17:46.894Z,16.13
2018-09-16T02:18:47.369Z,16.23
2018-09-16T02:19:47.836Z,16.33
2018-09-16T02:20:48.308Z,16.42
2018-09-16T02:21:48.782Z,16.49
2018-09-16T02:22:49.305Z,16.57
2018-09-16T02:23:49.724Z,16.65
2018-09-16T02:24:50.196Z,16.76
2018-09-16T02:25:50.668Z,16.84
2018-09-16T02:26:51.145Z,16.94
2018-09-16T02:27:51.613Z,17.01
2018-09-16T02:28:52.086Z,17.10
2018-09-16T02:29:52.565Z,17.19
2018-09-16T02:30:53.032Z,17.29
2018-09-16T02:31:53.507Z,17.35
2018-09-16T02:32:53.978Z,17.43
2018-09-16T02:33:54.453Z,17.47
2018-09-16T02:34:54.928Z,17.49
2018-09-16T02:35:55.400Z,17.50
2018-09-16T02:36:55.878Z,17.49
2018-09-16T02:37:56.352Z,17.47
2018-09-16T02:38:56.825Z,17.42
2018-09-16T02:39:57.298Z,17.36
2018-09-16T02:40:57.770Z,17.29
2018-09-16T02:41:58.247Z,17.21
2018-09-16T02:42:58.770Z,17.12
2018-09-16T02:43:59.263Z,17.01
2018-09-16T02:44:59.667Z,16.90
2018-09-16T02:46:00.143Z,16.78
2018-09-16T02:47:00.614Z,16.65
2018-09-16T02:48:01.088Z,16.53
2018-09-16T02:49:01.562Z,16.42
2018-09-16T02:50:02.079Z,16.30
2018-09-16T02:51:02.508Z,16.18
2018-09-16T02:52:02.980Z,16.06
2018-09-16T02:53:03.493Z,15.94
2018-09-16T02:54:03.927Z,15.81
2018-09-16T02:55:04.398Z,15.70
2018-09-16T02:56:04.872Z,15.59
2018-09-16T02:57:05.348Z,15.49
2018-09-16T02:58:05.817Z,15.38
2018-09-16T02:59:06.489Z,15.28
2018-09-16T03:00:06.962Z,15.18
2018-09-16T03:01:07.230Z,15.09
2018-09-16T03:02:07.703Z,14.99
2018-09-16T03:03:08.181Z,14.89
2018-09-16T03:04:08.645Z,14.79
2018-09-16T03:05:09.117Z,14.71
2018-09-16T03:06:09.589Z,14.61
2018-09-16T03:07:10.060Z,14.54
2018-09-16T03:08:10.528Z,14.47
2018-09-16T03:09:10.998Z,14.43
2018-09-16T03:10:11.468Z,14.41
2018-09-16T03:11:11.938Z,14.41
2018-09-16T03:12:12.408Z,14.42
2018-09-16T03:13:12.878Z,14.44
2018-09-16T03:14:13.350Z,14.48
2018-09-16T03:15:13.819Z,14.54
2018-09-16T03:16:14.288Z,14.61
2018-09-16T03:17:14.763Z,14.68
2018-09-16T03:18:15.230Z,14.77
2018-09-16T03:19:15.703Z,14.86
2018-09-16T03:20:16.171Z,14.97
2018-09-16T03:21:16.641Z,15.07
2018-09-16T03:22:17.112Z,15.18
2018-09-16T03:23:17.633Z,15.29
2018-09-16T03:24:18.050Z,15.42
2018-09-16T03:25:18.523Z,15.53
2018-09-16T03:26:18.994Z,15.64
2018-09-16T03:27:19.464Z,15.74
2018-09-16T03:28:19.935Z,15.84
2018-09-16T03:29:20.405Z,15.94
2018-09-16T03:30:20.878Z,16.03
2018-09-16T03:31:21.372Z,16.13
2018-09-16T03:32:21.820Z,16.22
2018-09-16T03:33:22.343Z,16.30
2018-09-16T03:34:22.764Z,16.39
2018-09-16T03:35:23.239Z,16.48
2018-09-16T03:36:23.707Z,16.56
2018-09-16T03:37:24.179Z,16.64
2018-09-16T03:38:24.702Z,16.73
2018-09-16T03:39:25.136Z,16.80
2018-09-16T03:40:25.599Z,16.88
2018-09-16T03:41:26.078Z,16.97
2018-09-16T03:42:26.546Z,17.05
2018-09-16T03:43:27.018Z,17.13
2018-09-16T03:44:27.489Z,17.20
2018-09-16T03:45:27.962Z,17.23
2018-09-16T03:46:28.437Z,17.24
2018-09-16T03:47:28.909Z,17.24
2018-09-16T03:48:29.383Z,17.22
2018-09-16T03:49:29.858Z,17.18
2018-09-16T03:50:30.331Z,17.12
2018-09-16T03:51:30.806Z,17.05
2018-09-16T03:52:31.281Z,16.96
2018-09-16T03:53:31.803Z,16.88
2018-09-16T03:54:32.227Z,16.79
2018-09-16T03:55:32.699Z,16.67
2018-09-16T03:56:33.175Z,16.54
2018-09-16T03:57:33.647Z,16.42
2018-09-16T03:58:34.122Z,16.30
2018-09-16T03:59:34.598Z,16.18
2018-09-16T04:00:35.069Z,16.06
2018-09-16T04:01:35.538Z,15.95
2018-09-16T04:02:36.016Z,15.82
2018-09-16T04:03:36.487Z,15.71
2018-09-16T04:04:36.957Z,15.59
2018-09-16T04:05:37.431Z,15.46
2018-09-16T04:06:37.904Z,15.33
2018-09-16T04:07:38.377Z,15.22
2018-09-16T04:08:38.899Z,15.12
2018-09-16T04:09:39.319Z,15.02
2018-09-16T04:10:39.794Z,14.92
2018-09-16T04:11:40.264Z,14.83
2018-09-16T04:12:40.732Z,14.74
2018-09-16T04:13:41.252Z,14.64
2018-09-16T04:14:41.682Z,14.55
2018-09-16T04:15:42.146Z,14.45
2018-09-16T04:16:42.616Z,14.38
2018-09-16T04:17:43.089Z,14.32
2018-09-16T04:18:43.558Z,14.27
2018-09-16T04:19:44.032Z,14.24
2018-09-16T04:20:44.498Z,14.24
2018-09-16T04:21:44.968Z,14.24
2018-09-16T04:22:45.441Z,14.29
2018-09-16T04:23:45.960Z,14.34
2018-09-16T04:24:46.378Z,14.38
2018-09-16T04:25:46.849Z,14.47
2018-09-16T04:26:47.318Z,14.56
2018-09-16T04:27:47.791Z,14.65
2018-09-16T04:28:48.260Z,14.75
2018-09-16T04:29:48.729Z,14.86
2018-09-16T04:30:49.198Z,14.98
2018-09-16T04:31:49.669Z,15.08
2018-09-16T04:32:50.139Z,15.18
2018-09-16T04:33:50.610Z,15.29
2018-09-16T04:34:51.080Z,15.40
2018-09-16T04:35:51.550Z,15.50
2018-09-16T04:36:52.022Z,15.60
2018-09-16T04:37:52.495Z,15.70
2018-09-16T04:38:52.962Z,15.79
2018-09-16T04:39:53.435Z,15.88
2018-09-16T04:40:53.906Z,15.96
2018-09-16T04:41:54.378Z,16.05
2018-09-16T04:42:54.849Z,16.12
2018-09-16T04:43:55.320Z,16.20
2018-09-16T04:44:55.831Z,16.29
2018-09-16T04:45:56.266Z,16.38
2018-09-16T04:46:56.735Z,16.46
2018-09-16T04:47:57.209Z,16.54
2018-09-16T04:48:57.684Z,16.62
2018-09-16T04:49:58.164Z,16.71
2018-09-16T04:50:58.627Z,16.79
2018-09-16T04:51:59.103Z,16.87
2018-09-16T04:52:59.573Z,16.97
2018-09-16T04:54:00.046Z,17.02
2018-09-16T04:55:00.519Z,17.08
2018-09-16T04:56:00.993Z,17.11
2018-09-16T04:57:01.468Z,17.11
2018-09-16T04:58:01.946Z,17.10
2018-09-16T04:59:02.416Z,17.09
2018-09-16T05:00:02.890Z,17.04
2018-09-16T05:01:03.367Z,16.97
2018-09-16T05:02:03.839Z,16.88
2018-09-16T05:03:04.311Z,16.81
2018-09-16T05:04:04.784Z,16.72
2018-09-16T05:05:05.260Z,16.62
2018-09-16T05:06:05.734Z,16.51
2018-09-16T05:07:06.205Z,16.40
2018-09-16T05:08:06.680Z,16.28
2018-09-16T05:09:07.201Z,16.15
2018-09-16T05:10:07.623Z,16.04
2018-09-16T05:11:08.096Z,15.92
2018-09-16T05:12:08.571Z,15.80
2018-09-16T05:13:09.043Z,15.68
2018-09-16T05:14:09.516Z,15.56
2018-09-16T05:15:09.991Z,15.44
2018-09-16T05:16:10.461Z,15.32
2018-09-16T05:17:10.934Z,15.20
2018-09-16T05:18:11.404Z,15.09
2018-09-16T05:19:11.928Z,15.00
2018-09-16T05:20:12.348Z,14.89
2018-09-16T05:21:12.820Z,14.80
2018-09-16T05:22:13.289Z,14.71
2018-09-16T05:23:13.764Z,14.61
2018-09-16T05:24:14.234Z,14.53
2018-09-16T05:25:14.704Z,14.45
2018-09-16T05:26:15.175Z,14.38
2018-09-16T05:27:15.646Z,14.33
2018-09-16T05:28:16.119Z,14.30
2018-09-16T05:29:16.589Z,14.29
2018-09-16T05:30:17.059Z,14.29
2018-09-16T05:31:17.541Z,14.31
2018-09-16T05:32:18.043Z,14.36
2018-09-16T05:33:18.468Z,14.42
2018-09-16T05:34:18.938Z,14.49
2018-09-16T05:35:19.407Z,14.57
2018-09-16T05:36:19.877Z,14.68
2018-09-16T05:37:20.348Z,14.79
2018-09-16T05:38:20.818Z,14.89
2018-09-16T05:39:21.339Z,15.02
2018-09-16T05:40:21.760Z,15.14
2018-09-16T05:41:22.230Z,15.25
2018-09-16T05:42:22.700Z,15.37
2018-09-16T05:43:23.191Z,15.49
2018-09-16T05:44:23.640Z,15.61
2018-09-16T05:45:24.113Z,15.73
2018-09-16T05:46:24.582Z,15.83
2018-09-16T05:47:25.055Z,15.93
2018-09-16T05:48:25.526Z,16.04
2018-09-16T05:49:26.002Z,16.13
2018-09-16T05:50:26.469Z,16.24
2018-09-16T05:51:26.938Z,16.34
2018-09-16T05:52:27.412Z,16.45
2018-09-16T05:53:28.034Z,16.54
2018-09-16T05:54:28.356Z,16.63
2018-09-16T05:55:28.835Z,16.74
2018-09-16T05:56:29.303Z,16.85
2018-09-16T05:57:29.772Z,16.96
2018-09-16T05:58:30.246Z,17.07
2018-09-16T05:59:30.725Z,17.18
2018-09-16T06:00:31.198Z,17.28
2018-09-16T06:01:31.667Z,17.39
2018-09-16T06:02:32.140Z,17.47
2018-09-16T06:03:32.613Z,17.54
2018-09-16T06:04:33.089Z,17.58
2018-09-16T06:05:33.563Z,17.63
2018-09-16T06:06:34.035Z,17.65
2018-09-16T06:07:34.509Z,17.65
2018-09-16T06:08:34.983Z,17.62
2018-09-16T06:09:35.459Z,17.57
2018-09-16T06:10:35.931Z,17.54
2018-09-16T06:11:36.406Z,17.49
2018-09-16T06:12:36.882Z,17.44
2018-09-16T06:13:37.355Z,17.37
2018-09-16T06:14:37.828Z,17.29
2018-09-16T06:15:38.303Z,17.21
2018-09-16T06:16:38.780Z,17.13
2018-09-16T06:17:39.262Z,17.05
2018-09-16T06:18:39.780Z,16.95
2018-09-16T06:19:40.250Z,16.88
2018-09-16T06:20:40.672Z,16.79
2018-09-16T06:21:41.145Z,16.70
2018-09-16T06:22:41.649Z,16.62
2018-09-16T06:23:42.096Z,16.53
2018-09-16T06:24:42.818Z,16.45
2018-09-16T06:25:43.036Z,16.37
2018-09-16T06:26:43.509Z,16.30
2018-09-16T06:27:43.984Z,16.22
2018-09-16T06:28:44.458Z,16.15
2018-09-16T06:29:44.931Z,16.09
2018-09-16T06:30:45.402Z,16.03
2018-09-16T06:31:45.872Z,15.96
2018-09-16T06:32:46.345Z,15.90
2018-09-16T06:33:46.831Z,15.83
2018-09-16T06:34:47.288Z,15.78
2018-09-16T06:35:47.763Z,15.73
2018-09-16T06:36:48.231Z,15.67
2018-09-16T06:37:48.701Z,15.60
2018-09-16T06:38:49.173Z,15.54
2018-09-16T06:39:49.644Z,15.48
2018-09-16T06:40:50.117Z,15.44
2018-09-16T06:41:50.588Z,15.41
2018-09-16T06:42:51.057Z,15.39
2018-09-16T06:43:51.528Z,15.40
2018-09-16T06:44:51.999Z,15.42
2018-09-16T06:45:52.468Z,15.45
2018-09-16T06:46:52.948Z,15.50
2018-09-16T06:47:53.413Z,15.58
2018-09-16T06:48:53.882Z,15.65
2018-09-16T06:49:54.351Z,15.75
2018-09-16T06:50:54.843Z,15.86
2018-09-16T06:51:55.296Z,15.98
2018-09-16T06:52:55.773Z,16.10
2018-09-16T06:53:56.235Z,16.21
2018-09-16T06:54:56.705Z,16.34
2018-09-16T06:55:57.176Z,16.48
2018-09-16T06:56:57.650Z,16.61
2018-09-16T06:57:58.117Z,16.76
2018-09-16T06:58:58.592Z,16.89
2018-09-16T06:59:59.063Z,17.04
2018-09-16T07:00:59.536Z,17.17
2018-09-16T07:02:00.007Z,17.32
2018-09-16T07:03:00.477Z,17.44
2018-09-16T07:04:00.950Z,17.57
2018-09-16T07:05:01.425Z,17.70
2018-09-16T07:06:01.895Z,17.81
2018-09-16T07:07:02.368Z,17.92
2018-09-16T07:08:02.842Z,18.04
2018-09-16T07:09:03.316Z,18.14
2018-09-16T07:10:03.789Z,18.26
2018-09-16T07:11:04.261Z,18.36
2018-09-16T07:12:04.733Z,18.46
2018-09-16T07:13:05.210Z,18.54
2018-09-16T07:14:05.682Z,18.60
2018-09-16T07:15:06.161Z,18.63
2018-09-16T07:16:06.633Z,18.65
2018-09-16T07:17:07.109Z,18.65
2018-09-16T07:18:07.580Z,18.63
2018-09-16T07:19:08.059Z,18.63
2018-09-16T07:20:08.549Z,18.60
2018-09-16T07:21:09.005Z,18.57
2018-09-16T07:22:09.480Z,18.52
2018-09-16T07:23:09.955Z,18.47
2018-09-16T07:24:10.431Z,18.41
2018-09-16T07:25:10.906Z,18.35
2018-09-16T07:26:11.378Z,18.28
2018-09-16T07:27:11.860Z,18.22
2018-09-16T07:28:12.328Z,18.15
2018-09-16T07:29:12.803Z,18.09
2018-09-16T07:30:13.276Z,18.02
2018-09-16T07:31:13.750Z,17.94
2018-09-16T07:32:14.225Z,17.87
2018-09-16T07:33:14.701Z,17.79
2018-09-16T07:34:15.192Z,17.72
2018-09-16T07:35:15.645Z,17.65
2018-09-16T07:36:16.124Z,17.59
2018-09-16T07:37:16.591Z,17.51
2018-09-16T07:38:17.068Z,17.46
2018-09-16T07:39:17.538Z,17.40
2018-09-16T07:40:18.063Z,17.35
2018-09-16T07:41:18.484Z,17.30
2018-09-16T07:42:18.958Z,17.24
2018-09-16T07:43:19.430Z,17.17
2018-09-16T07:44:19.902Z,17.12
2018-09-16T07:45:20.379Z,17.07
2018-09-16T07:46:20.849Z,17.02
2018-09-16T07:47:21.374Z,16.97
2018-09-16T07:48:21.797Z,16.92
2018-09-16T07:49:22.267Z,16.88
2018-09-16T07:50:22.737Z,16.84
2018-09-16T07:51:23.208Z,16.80
2018-09-16T07:52:23.686Z,16.78
2018-09-16T07:53:24.213Z,16.74
2018-09-16T07:54:24.624Z,16.73
2018-09-16T07:55:25.102Z,16.71
2018-09-16T07:56:25.570Z,16.70
2018-09-16T07:57:26.040Z,16.69
2018-09-16T07:58:26.517Z,16.69
2018-09-16T07:59:26.986Z,16.69
2018-09-16T08:00:27.471Z,16.71
2018-09-16T08:01:27.929Z,16.73
2018-09-16T08:02:28.400Z,16.78
2018-09-16T08:03:28.870Z,16.83
2018-09-16T08:04:29.343Z,16.90
2018-09-16T08:05:29.828Z,16.99
2018-09-16T08:06:30.287Z,17.08
2018-09-16T08:07:30.760Z,17.21
2018-09-16T08:08:31.232Z,17.34
2018-09-16T08:09:31.706Z,17.47
2018-09-16T08:10:32.177Z,17.62
2018-09-16T08:11:32.648Z,17.78
2018-09-16T08:12:33.122Z,17.98
2018-09-16T08:13:33.635Z,18.18
2018-09-16T08:14:34.069Z,18.39
2018-09-16T08:15:34.544Z,18.61
2018-09-16T08:16:35.021Z,18.85
2018-09-16T08:17:35.494Z,19.13
2018-09-16T08:18:35.969Z,19.45
2018-09-16T08:19:36.451Z,19.80
2018-09-16T08:20:36.921Z,20.16
2018-09-16T08:21:37.397Z,20.54
2018-09-16T08:22:37.874Z,20.92
2018-09-16T08:23:38.352Z,21.27
2018-09-16T08:24:38.830Z,21.61
2018-09-16T08:25:39.305Z,21.92
2018-09-16T08:26:39.783Z,22.21
2018-09-16T08:27:40.267Z,22.46
2018-09-16T08:28:40.740Z,22.68
2018-09-16T08:29:41.242Z,22.87
2018-09-16T08:30:41.694Z,23.03
2018-09-16T08:31:42.173Z,23.13
2018-09-16T08:32:42.651Z,23.19
2018-09-16T08:33:43.131Z,23.20
2018-09-16T08:34:43.607Z,23.17
2018-09-16T08:35:44.085Z,23.10
2018-09-16T08:36:44.567Z,22.99
2018-09-16T08:37:45.042Z,22.86
2018-09-16T08:38:45.518Z,22.72
2018-09-16T08:39:45.996Z,22.57
2018-09-16T08:40:46.473Z,22.44
2018-09-16T08:41:46.950Z,22.29
2018-09-16T08:42:47.428Z,22.16
2018-09-16T08:43:47.906Z,22.01
2018-09-16T08:44:48.382Z,21.86
2018-09-16T08:45:48.909Z,21.71
2018-09-16T08:46:49.337Z,21.56
2018-09-16T08:47:49.813Z,21.41
2018-09-16T08:48:50.290Z,21.26
2018-09-16T08:49:50.764Z,21.12
2018-09-16T08:50:51.293Z,20.98
2018-09-16T08:51:51.719Z,20.86
2018-09-16T08:52:52.197Z,20.72
2018-09-16T08:53:52.673Z,20.61
2018-09-16T08:54:53.146Z,20.49
2018-09-16T08:55:53.622Z,20.39
2018-09-16T08:56:54.097Z,20.29
2018-09-16T08:57:54.604Z,20.20
2018-09-16T08:58:55.047Z,20.11
2018-09-16T08:59:55.526Z,20.03
2018-09-16T09:00:55.997Z,19.96
2018-09-16T09:01:56.471Z,19.89
2018-09-16T09:02:56.947Z,19.83
2018-09-16T09:03:57.422Z,19.76
2018-09-16T09:04:57.897Z,19.70
2018-09-16T09:05:58.371Z,19.65
2018-09-16T09:06:58.844Z,19.60
2018-09-16T09:07:59.318Z,19.55
2018-09-16T09:08:59.794Z,19.50
2018-09-16T09:10:00.268Z,19.46
2018-09-16T09:11:00.742Z,19.41
2018-09-16T09:12:01.216Z,19.39
2018-09-16T09:13:01.691Z,19.36
2018-09-16T09:14:02.368Z,19.35
2018-09-16T09:15:02.640Z,19.36
2018-09-16T09:16:03.112Z,19.37
2018-09-16T09:17:03.587Z,19.39
2018-09-16T09:18:04.059Z,19.41
2018-09-16T09:19:04.535Z,19.44
2018-09-16T09:20:05.006Z,19.48
2018-09-16T09:21:05.479Z,19.51
2018-09-16T09:22:05.955Z,19.54
2018-09-16T09:23:06.427Z,19.56
2018-09-16T09:24:06.903Z,19.59
2018-09-16T09:25:07.373Z,19.61
2018-09-16T09:26:07.850Z,19.63
2018-09-16T09:27:08.321Z,19.63
2018-09-16T09:28:08.793Z,19.64
2018-09-16T09:29:09.304Z,19.63
2018-09-16T09:30:09.741Z,19.63
2018-09-16T09:31:10.215Z,19.63
2018-09-16T09:32:10.689Z,19.62
2018-09-16T09:33:11.161Z,19.61
2018-09-16T09:34:11.634Z,19.61
2018-09-16T09:35:12.106Z,19.61
2018-09-16T09:36:12.580Z,19.62
2018-09-16T09:37:13.051Z,19.62
2018-09-16T09:38:13.526Z,19.61
2018-09-16T09:39:13.998Z,19.62
2018-09-16T09:40:14.473Z,19.61
2018-09-16T09:41:14.943Z,19.61
2018-09-16T09:42:15.418Z,19.60
2018-09-16T09:43:15.888Z,19.58
2018-09-16T09:44:16.360Z,19.58
2018-09-16T09:45:16.841Z,19.56
2018-09-16T09:46:17.307Z,19.54
2018-09-16T09:47:17.779Z,19.53
2018-09-16T09:48:18.255Z,19.51
2018-09-16T09:49:18.726Z,19.50
2018-09-16T09:50:19.196Z,19.49
2018-09-16T09:51:19.720Z,19.47
2018-09-16T09:52:20.141Z,19.46
2018-09-16T09:53:20.636Z,19.44
2018-09-16T09:54:21.086Z,19.43
2018-09-16T09:55:21.557Z,19.42
2018-09-16T09:56:22.030Z,19.41
2018-09-16T09:57:22.503Z,19.40
2018-09-16T09:58:22.980Z,19.39
2018-09-16T09:59:23.475Z,19.38
2018-09-16T10:00:23.924Z,19.37
2018-09-16T10:01:24.391Z,19.36
2018-09-16T10:02:24.863Z,19.36
2018-09-16T10:03:25.341Z,19.35
2018-09-16T10:04:25.807Z,19.34
2018-09-16T10:05:26.278Z,19.34
2018-09-16T10:06:26.750Z,19.33
2018-09-16T10:07:27.221Z,19.32
2018-09-16T10:08:27.692Z,19.31
2018-09-16T10:09:28.168Z,19.31
2018-09-16T10:10:28.638Z,19.31
2018-09-16T10:11:29.109Z,19.30
2018-09-16T10:12:29.580Z,19.29
2018-09-16T10:13:30.052Z,19.28
2018-09-16T10:14:30.558Z,19.27
2018-09-16T10:15:30.995Z,19.26
2018-09-16T10:16:31.466Z,19.26
2018-09-16T10:17:31.937Z,19.24
2018-09-16T10:18:32.413Z,19.24
2018-09-16T10:19:32.880Z,19.23
2018-09-16T10:20:33.353Z,19.23
2018-09-16T10:21:33.826Z,19.22
2018-09-16T10:22:34.328Z,19.21
2018-09-16T10:23:34.767Z,19.21
2018-09-16T10:24:35.238Z,19.20
2018-09-16T10:25:35.712Z,19.20
2018-09-16T10:26:36.184Z,19.19
2018-09-16T10:27:36.652Z,19.19
2018-09-16T10:28:37.125Z,19.19
2018-09-16T10:29:37.595Z,19.19
2018-09-16T10:30:38.072Z,19.18
2018-09-16T10:31:38.539Z,19.18
2018-09-16T10:32:39.009Z,19.17
2018-09-16T10:33:39.482Z,19.17
2018-09-16T10:34:39.963Z,19.17
2018-09-16T10:35:40.430Z,19.16
2018-09-16T10:36:40.897Z,19.16
2018-09-16T10:37:41.370Z,19.16
2018-09-16T10:38:41.943Z,19.16
2018-09-16T10:39:42.309Z,19.16
2018-09-16T10:40:42.780Z,19.16
2018-09-16T10:41:43.253Z,19.16
2018-09-16T10:42:43.723Z,19.16
2018-09-16T10:43:44.194Z,19.17
2018-09-16T10:44:44.667Z,19.17
2018-09-16T10:45:45.135Z,19.17
2018-09-16T10:46:45.609Z,19.18
2018-09-16T10:47:46.080Z,19.19
2018-09-16T10:48:46.550Z,19.19
2018-09-16T10:49:47.023Z,19.20
2018-09-16T10:50:47.496Z,19.21
2018-09-16T10:51:47.964Z,19.22
2018-09-16T10:52:48.437Z,19.23
2018-09-16T10:53:48.909Z,19.24
2018-09-16T10:54:49.379Z,19.26
2018-09-16T10:55:49.849Z,19.27
2018-09-16T10:56:50.321Z,19.28
2018-09-16T10:57:50.793Z,19.29
2018-09-16T10:58:51.264Z,19.32
2018-09-16T10:59:51.735Z,19.33
2018-09-16T11:00:52.206Z,19.35
2018-09-16T11:01:52.680Z,19.36
2018-09-16T11:02:53.150Z,19.38
2018-09-16T11:03:53.622Z,19.40
2018-09-16T11:04:54.091Z,19.41
2018-09-16T11:05:54.563Z,19.44
2018-09-16T11:06:55.037Z,19.45
2018-09-16T11:07:55.540Z,19.47
2018-09-16T11:08:55.975Z,19.49
2018-09-16T11:09:56.448Z,19.51
2018-09-16T11:10:56.922Z,19.53
2018-09-16T11:11:57.444Z,19.55
2018-09-16T11:12:57.862Z,19.57
2018-09-16T11:13:58.332Z,19.59
2018-09-16T11:14:58.810Z,19.61
2018-09-16T11:15:59.308Z,19.63
2018-09-16T11:16:59.751Z,19.64
2018-09-16T11:18:00.219Z,19.66
2018-09-16T11:19:00.691Z,19.68
2018-09-16T11:20:01.161Z,19.69
2018-09-16T11:21:01.634Z,19.71
2018-09-16T11:22:02.194Z,19.73
2018-09-16T11:23:02.575Z,19.75
2018-09-16T11:24:03.046Z,19.76
2018-09-16T11:25:03.521Z,19.77
2018-09-16T11:26:03.990Z,19.80
2018-09-16T11:27:04.462Z,19.82
2018-09-16T11:28:04.936Z,19.84
2018-09-16T11:29:05.408Z,19.85
2018-09-16T11:30:05.893Z,19.87
2018-09-16T11:31:06.349Z,19.89
2018-09-16T11:32:06.820Z,19.90
2018-09-16T11:33:07.294Z,19.92
2018-09-16T11:34:07.763Z,19.93
2018-09-16T11:35:08.236Z,19.95
2018-09-16T11:36:08.705Z,19.98
2018-09-16T11:37:09.178Z,19.99
2018-09-16T11:38:09.651Z,20.02
2018-09-16T11:39:10.123Z,20.03
2018-09-16T11:40:10.594Z,20.05
2018-09-16T11:41:11.064Z,20.07
2018-09-16T11:42:11.538Z,20.09
2018-09-16T11:43:12.010Z,20.11
2018-09-16T11:44:12.485Z,20.13
2018-09-16T11:45:12.955Z,20.15
2018-09-16T11:46:13.428Z,20.17
2018-09-16T11:47:13.897Z,20.19
2018-09-16T11:48:14.368Z,20.21
2018-09-16T11:49:14.841Z,20.23
2018-09-16T11:50:15.312Z,20.24
2018-09-16T11:51:15.784Z,20.26
2018-09-16T11:52:16.256Z,20.28
2018-09-16T11:53:16.728Z,20.31
2018-09-16T11:54:17.201Z,20.33
2018-09-16T11:55:17.677Z,20.35
2018-09-16T11:56:18.146Z,20.36
2018-09-16T11:57:18.618Z,20.38
2018-09-16T11:58:19.089Z,20.40
2018-09-16T11:59:19.560Z,20.42
2018-09-16T12:00:20.031Z,20.45
2018-09-16T12:01:20.505Z,20.49
2018-09-16T12:02:20.976Z,20.51
2018-09-16T12:03:21.453Z,20.53
2018-09-16T12:04:21.920Z,20.55
2018-09-16T12:05:22.427Z,20.57
2018-09-16T12:06:22.867Z,20.59
2018-09-16T12:07:23.340Z,20.61
2018-09-16T12:08:23.812Z,20.63
2018-09-16T12:09:24.284Z,20.65
2018-09-16T12:10:24.756Z,20.67
2018-09-16T12:11:25.228Z,20.69
2018-09-16T12:12:25.701Z,20.71
2018-09-16T12:13:26.174Z,20.73
2018-09-16T12:14:26.647Z,20.76
2018-09-16T12:15:27.117Z,20.79
2018-09-16T12:16:27.590Z,20.81
2018-09-16T12:17:28.063Z,20.83
2018-09-16T12:18:28.537Z,20.85
2018-09-16T12:19:29.010Z,20.88
2018-09-16T12:20:29.484Z,20.90
2018-09-16T12:21:29.957Z,20.93
2018-09-16T12:22:30.426Z,20.95
2018-09-16T12:23:30.899Z,20.97
2018-09-16T12:24:31.370Z,20.99
2018-09-16T12:25:31.845Z,21.01
2018-09-16T12:26:32.317Z,21.03
2018-09-16T12:27:32.841Z,21.06
2018-09-16T12:28:33.263Z,21.08
2018-09-16T12:29:33.735Z,21.11
2018-09-16T12:30:34.209Z,21.12
2018-09-16T12:31:34.685Z,21.14
2018-09-16T12:32:35.156Z,21.14
2018-09-16T12:33:35.628Z,21.16
2018-09-16T12:34:36.100Z,21.19
2018-09-16T12:35:36.577Z,21.21
2018-09-16T12:36:37.048Z,21.22
2018-09-16T12:37:37.521Z,21.25
2018-09-16T12:38:37.996Z,21.27
2018-09-16T12:39:38.467Z,21.30
2018-09-16T12:40:38.948Z,21.32
2018-09-16T12:41:39.413Z,21.34
2018-09-16T12:42:39.891Z,21.36
2018-09-16T12:43:40.360Z,21.38
2018-09-16T12:44:40.835Z,21.39
2018-09-16T12:45:41.305Z,21.42
2018-09-16T12:46:41.782Z,21.43
2018-09-16T12:47:42.254Z,21.46
2018-09-16T12:48:42.729Z,21.49
2018-09-16T12:49:43.201Z,21.50
2018-09-16T12:50:43.677Z,21.52
2018-09-16T12:51:44.152Z,21.52
2018-09-16T12:52:44.622Z,21.54
2018-09-16T12:53:45.095Z,21.55
2018-09-16T12:54:45.569Z,21.58
2018-09-16T12:55:46.045Z,21.60
2018-09-16T12:56:46.514Z,21.61
2018-09-16T12:57:46.990Z,21.63
2018-09-16T12:58:47.465Z,21.65
2018-09-16T12:59:47.936Z,21.67